sensor_id;sensor_type;location;lat;lon;timestamp;P1;durP1;ratioP1;P2;durP2;ratioP2
21903;SDS011;11116;51.554;7.812;2022-07-11T00:02:15;7.55;;;3.47;;
21903;SDS011;11116;51.554;7.812;2022-07-11T00:04:42;8.43;;;3.50;;
21903;SDS011;11116;51.554;7.812;2022-07-11T00:07:10;8.15;;;3.42;;
21903;SDS011;11116;51.554;7.812;2022-07-11T00:09:37;9.38;;;3.90;;
21903;SDS011;11116;51.554;7.812;2022-07-11T00:12:04;4.65;;;3.20;;
21903;SDS011;11116;51.554;7.812;2022-07-11T00:14:33;7.38;;;3.88;;
21903;SDS011;11116;51.554;7.812;2022-07-11T00:17:01;8.93;;;3.50;;
21903;SDS011;11116;51.554;7.812;2022-07-11T00:19:27;4.80;;;3.30;;
21903;SDS011;11116;51.554;7.812;2022-07-11T00:21:54;5.43;;;3.40;;
21903;SDS011;11116;51.554;7.812;2022-07-11T00:24:21;4.97;;;3.50;;
21903;SDS011;11116;51.554;7.812;2022-07-11T00:26:50;8.35;;;3.50;;
21903;SDS011;11116;51.554;7.812;2022-07-11T00:29:17;4.95;;;3.40;;
21903;SDS011;11116;51.554;7.812;2022-07-11T00:31:45;7.55;;;3.55;;
21903;SDS011;11116;51.554;7.812;2022-07-11T00:34:12;6.25;;;3.80;;
21903;SDS011;11116;51.554;7.812;2022-07-11T00:36:39;6.30;;;3.97;;
21903;SDS011;11116;51.554;7.812;2022-07-11T00:39:06;7.47;;;3.50;;
21903;SDS011;11116;51.554;7.812;2022-07-11T00:41:34;7.28;;;3.90;;
21903;SDS011;11116;51.554;7.812;2022-07-11T00:44:01;4.63;;;3.65;;
21903;SDS011;11116;51.554;7.812;2022-07-11T00:46:28;10.55;;;3.63;;
21903;SDS011;11116;51.554;7.812;2022-07-11T00:48:58;9.18;;;3.17;;
21903;SDS011;11116;51.554;7.812;2022-07-11T00:51:26;6.28;;;3.60;;
21903;SDS011;11116;51.554;7.812;2022-07-11T00:53:54;8.68;;;3.58;;
21903;SDS011;11116;51.554;7.812;2022-07-11T00:56:23;7.50;;;3.33;;
21903;SDS011;11116;51.554;7.812;2022-07-11T00:58:51;6.55;;;3.90;;
21903;SDS011;11116;51.554;7.812;2022-07-11T01:01:19;6.25;;;3.00;;
21903;SDS011;11116;51.554;7.812;2022-07-11T01:03:47;9.50;;;3.22;;
21903;SDS011;11116;51.554;7.812;2022-07-11T01:06:15;5.60;;;3.10;;
21903;SDS011;11116;51.554;7.812;2022-07-11T01:08:43;7.05;;;3.22;;
21903;SDS011;11116;51.554;7.812;2022-07-11T01:11:11;7.53;;;3.70;;
21903;SDS011;11116;51.554;7.812;2022-07-11T01:13:41;7.07;;;3.45;;
21903;SDS011;11116;51.554;7.812;2022-07-11T01:16:09;6.88;;;3.53;;
21903;SDS011;11116;51.554;7.812;2022-07-11T01:18:38;7.30;;;3.33;;
21903;SDS011;11116;51.554;7.812;2022-07-11T01:21:08;11.63;;;3.83;;
21903;SDS011;11116;51.554;7.812;2022-07-11T01:23:45;4.97;;;3.35;;
21903;SDS011;11116;51.554;7.812;2022-07-11T01:26:12;9.13;;;3.75;;
21903;SDS011;11116;51.554;7.812;2022-07-11T01:28:41;9.13;;;3.35;;
21903;SDS011;11116;51.554;7.812;2022-07-11T01:31:08;6.57;;;3.10;;
21903;SDS011;11116;51.554;7.812;2022-07-11T01:33:35;10.15;;;3.67;;
21903;SDS011;11116;51.554;7.812;2022-07-11T01:36:02;7.47;;;3.42;;
21903;SDS011;11116;51.554;7.812;2022-07-11T01:38:29;8.38;;;3.42;;
21903;SDS011;11116;51.554;7.812;2022-07-11T01:40:57;4.93;;;3.60;;
21903;SDS011;11116;51.554;7.812;2022-07-11T01:43:24;10.80;;;4.43;;
21903;SDS011;11116;51.554;7.812;2022-07-11T01:45:51;4.72;;;4.03;;
21903;SDS011;11116;51.554;7.812;2022-07-11T01:48:19;8.80;;;3.88;;
21903;SDS011;11116;51.554;7.812;2022-07-11T01:50:46;7.25;;;3.90;;
21903;SDS011;11116;51.554;7.812;2022-07-11T01:53:14;12.63;;;4.25;;
21903;SDS011;11116;51.554;7.812;2022-07-11T01:55:42;4.18;;;3.78;;
21903;SDS011;11116;51.554;7.812;2022-07-11T01:58:10;7.78;;;3.38;;
21903;SDS011;11116;51.554;7.812;2022-07-11T02:00:37;10.23;;;4.28;;
21903;SDS011;11116;51.554;7.812;2022-07-11T02:03:04;12.77;;;3.85;;
21903;SDS011;11116;51.554;7.812;2022-07-11T02:05:30;7.60;;;4.18;;
21903;SDS011;11116;51.554;7.812;2022-07-11T02:07:57;8.85;;;3.20;;
21903;SDS011;11116;51.554;7.812;2022-07-11T02:10:40;11.23;;;3.80;;
21903;SDS011;11116;51.554;7.812;2022-07-11T02:13:10;12.50;;;4.68;;
21903;SDS011;11116;51.554;7.812;2022-07-11T02:15:38;5.13;;;3.63;;
21903;SDS011;11116;51.554;7.812;2022-07-11T02:18:06;4.15;;;3.53;;
21903;SDS011;11116;51.554;7.812;2022-07-11T02:20:34;7.55;;;3.88;;
21903;SDS011;11116;51.554;7.812;2022-07-11T02:23:01;11.77;;;4.65;;
21903;SDS011;11116;51.554;7.812;2022-07-11T02:25:29;8.60;;;3.97;;
21903;SDS011;11116;51.554;7.812;2022-07-11T02:27:57;9.48;;;4.10;;
21903;SDS011;11116;51.554;7.812;2022-07-11T02:30:25;11.85;;;4.85;;
21903;SDS011;11116;51.554;7.812;2022-07-11T02:32:52;6.03;;;3.72;;
21903;SDS011;11116;51.554;7.812;2022-07-11T02:35:20;8.68;;;4.35;;
21903;SDS011;11116;51.554;7.812;2022-07-11T02:37:47;6.88;;;3.55;;
21903;SDS011;11116;51.554;7.812;2022-07-11T02:40:14;10.75;;;4.20;;
21903;SDS011;11116;51.554;7.812;2022-07-11T02:42:42;10.88;;;4.53;;
21903;SDS011;11116;51.554;7.812;2022-07-11T02:45:09;8.98;;;4.40;;
21903;SDS011;11116;51.554;7.812;2022-07-11T02:47:38;6.93;;;4.55;;
21903;SDS011;11116;51.554;7.812;2022-07-11T02:50:06;7.03;;;4.13;;
21903;SDS011;11116;51.554;7.812;2022-07-11T02:52:34;8.98;;;4.25;;
21903;SDS011;11116;51.554;7.812;2022-07-11T02:55:02;7.50;;;3.85;;
21903;SDS011;11116;51.554;7.812;2022-07-11T02:57:29;6.63;;;4.40;;
21903;SDS011;11116;51.554;7.812;2022-07-11T02:59:56;7.47;;;5.03;;
21903;SDS011;11116;51.554;7.812;2022-07-11T03:02:22;8.05;;;4.82;;
21903;SDS011;11116;51.554;7.812;2022-07-11T03:04:51;6.72;;;4.25;;
21903;SDS011;11116;51.554;7.812;2022-07-11T03:07:18;8.65;;;4.45;;
21903;SDS011;11116;51.554;7.812;2022-07-11T03:09:44;10.63;;;4.80;;
21903;SDS011;11116;51.554;7.812;2022-07-11T03:12:11;7.70;;;3.88;;
21903;SDS011;11116;51.554;7.812;2022-07-11T03:14:38;5.75;;;4.03;;
21903;SDS011;11116;51.554;7.812;2022-07-11T03:17:05;12.90;;;4.20;;
21903;SDS011;11116;51.554;7.812;2022-07-11T03:19:32;8.15;;;4.40;;
21903;SDS011;11116;51.554;7.812;2022-07-11T03:22:00;8.18;;;4.85;;
21903;SDS011;11116;51.554;7.812;2022-07-11T03:24:27;7.25;;;4.03;;
21903;SDS011;11116;51.554;7.812;2022-07-11T03:26:54;10.30;;;5.25;;
21903;SDS011;11116;51.554;7.812;2022-07-11T03:29:21;8.80;;;4.65;;
21903;SDS011;11116;51.554;7.812;2022-07-11T03:31:49;8.13;;;4.63;;
21903;SDS011;11116;51.554;7.812;2022-07-11T03:34:16;11.60;;;4.55;;
21903;SDS011;11116;51.554;7.812;2022-07-11T03:36:43;11.77;;;4.60;;
21903;SDS011;11116;51.554;7.812;2022-07-11T03:39:13;10.73;;;5.47;;
21903;SDS011;11116;51.554;7.812;2022-07-11T03:41:42;10.88;;;5.03;;
21903;SDS011;11116;51.554;7.812;2022-07-11T03:44:09;4.65;;;3.75;;
21903;SDS011;11116;51.554;7.812;2022-07-11T03:46:35;6.10;;;4.35;;
21903;SDS011;11116;51.554;7.812;2022-07-11T03:49:02;9.68;;;4.32;;
21903;SDS011;11116;51.554;7.812;2022-07-11T03:51:29;5.55;;;3.90;;
21903;SDS011;11116;51.554;7.812;2022-07-11T03:53:56;7.13;;;4.43;;
21903;SDS011;11116;51.554;7.812;2022-07-11T03:56:24;8.18;;;3.97;;
21903;SDS011;11116;51.554;7.812;2022-07-11T03:58:51;9.23;;;4.90;;
21903;SDS011;11116;51.554;7.812;2022-07-11T04:01:18;8.35;;;4.43;;
21903;SDS011;11116;51.554;7.812;2022-07-11T04:03:46;9.65;;;4.45;;
21903;SDS011;11116;51.554;7.812;2022-07-11T04:06:14;6.47;;;3.90;;
21903;SDS011;11116;51.554;7.812;2022-07-11T04:08:41;10.05;;;4.75;;
21903;SDS011;11116;51.554;7.812;2022-07-11T04:11:08;6.90;;;4.53;;
21903;SDS011;11116;51.554;7.812;2022-07-11T04:13:36;7.85;;;4.30;;
21903;SDS011;11116;51.554;7.812;2022-07-11T04:16:03;12.90;;;4.88;;
21903;SDS011;11116;51.554;7.812;2022-07-11T04:18:31;8.85;;;4.40;;
21903;SDS011;11116;51.554;7.812;2022-07-11T04:20:58;11.05;;;5.25;;
21903;SDS011;11116;51.554;7.812;2022-07-11T04:23:25;6.63;;;4.05;;
21903;SDS011;11116;51.554;7.812;2022-07-11T04:25:52;6.30;;;4.72;;
21903;SDS011;11116;51.554;7.812;2022-07-11T04:28:18;11.52;;;4.72;;
21903;SDS011;11116;51.554;7.812;2022-07-11T04:30:47;11.80;;;4.70;;
21903;SDS011;11116;51.554;7.812;2022-07-11T04:33:14;12.70;;;4.22;;
21903;SDS011;11116;51.554;7.812;2022-07-11T04:35:40;9.85;;;5.25;;
21903;SDS011;11116;51.554;7.812;2022-07-11T04:38:08;8.45;;;5.05;;
21903;SDS011;11116;51.554;7.812;2022-07-11T04:40:35;9.05;;;4.50;;
21903;SDS011;11116;51.554;7.812;2022-07-11T04:43:02;10.98;;;4.60;;
21903;SDS011;11116;51.554;7.812;2022-07-11T04:45:29;12.60;;;5.18;;
21903;SDS011;11116;51.554;7.812;2022-07-11T04:47:58;12.70;;;4.38;;
21903;SDS011;11116;51.554;7.812;2022-07-11T04:50:26;7.93;;;4.88;;
21903;SDS011;11116;51.554;7.812;2022-07-11T04:52:54;7.68;;;4.70;;
21903;SDS011;11116;51.554;7.812;2022-07-11T04:55:21;10.98;;;5.00;;
21903;SDS011;11116;51.554;7.812;2022-07-11T04:57:48;9.27;;;4.85;;
21903;SDS011;11116;51.554;7.812;2022-07-11T05:00:15;5.72;;;4.03;;
21903;SDS011;11116;51.554;7.812;2022-07-11T05:02:42;7.70;;;4.70;;
21903;SDS011;11116;51.554;7.812;2022-07-11T05:05:11;10.23;;;5.70;;
21903;SDS011;11116;51.554;7.812;2022-07-11T05:07:38;10.82;;;4.72;;
21903;SDS011;11116;51.554;7.812;2022-07-11T05:10:05;10.38;;;5.20;;
21903;SDS011;11116;51.554;7.812;2022-07-11T05:12:33;9.52;;;4.43;;
21903;SDS011;11116;51.554;7.812;2022-07-11T05:15:00;7.07;;;4.47;;
21903;SDS011;11116;51.554;7.812;2022-07-11T05:17:27;13.60;;;5.00;;
21903;SDS011;11116;51.554;7.812;2022-07-11T05:19:54;9.88;;;4.22;;
21903;SDS011;11116;51.554;7.812;2022-07-11T05:22:22;8.98;;;4.75;;
21903;SDS011;11116;51.554;7.812;2022-07-11T05:24:49;11.15;;;4.82;;
21903;SDS011;11116;51.554;7.812;2022-07-11T05:27:16;6.18;;;4.65;;
21903;SDS011;11116;51.554;7.812;2022-07-11T05:29:43;9.40;;;4.63;;
21903;SDS011;11116;51.554;7.812;2022-07-11T05:32:10;5.40;;;3.92;;
21903;SDS011;11116;51.554;7.812;2022-07-11T05:34:37;7.15;;;4.00;;
21903;SDS011;11116;51.554;7.812;2022-07-11T05:37:05;6.80;;;4.15;;
21903;SDS011;11116;51.554;7.812;2022-07-11T05:39:33;11.25;;;4.57;;
21903;SDS011;11116;51.554;7.812;2022-07-11T05:42:00;6.63;;;3.65;;
21903;SDS011;11116;51.554;7.812;2022-07-11T05:44:27;6.07;;;3.35;;
21903;SDS011;11116;51.554;7.812;2022-07-11T05:46:57;4.05;;;3.20;;
21903;SDS011;11116;51.554;7.812;2022-07-11T05:49:26;5.43;;;3.13;;
21903;SDS011;11116;51.554;7.812;2022-07-11T05:51:53;7.25;;;3.00;;
21903;SDS011;11116;51.554;7.812;2022-07-11T05:54:20;6.95;;;3.17;;
21903;SDS011;11116;51.554;7.812;2022-07-11T05:56:48;7.35;;;2.75;;
21903;SDS011;11116;51.554;7.812;2022-07-11T05:59:15;3.78;;;2.88;;
21903;SDS011;11116;51.554;7.812;2022-07-11T06:01:42;5.50;;;2.92;;
21903;SDS011;11116;51.554;7.812;2022-07-11T06:04:09;7.97;;;2.42;;
21903;SDS011;11116;51.554;7.812;2022-07-11T06:06:37;4.03;;;2.30;;
21903;SDS011;11116;51.554;7.812;2022-07-11T06:09:04;7.85;;;2.85;;
21903;SDS011;11116;51.554;7.812;2022-07-11T06:11:32;6.22;;;2.72;;
21903;SDS011;11116;51.554;7.812;2022-07-11T06:14:00;2.45;;;2.13;;
21903;SDS011;11116;51.554;7.812;2022-07-11T06:16:27;4.40;;;1.90;;
21903;SDS011;11116;51.554;7.812;2022-07-11T06:18:54;2.80;;;2.22;;
21903;SDS011;11116;51.554;7.812;2022-07-11T06:21:21;2.60;;;1.70;;
21903;SDS011;11116;51.554;7.812;2022-07-11T06:23:48;2.22;;;1.85;;
21903;SDS011;11116;51.554;7.812;2022-07-11T06:26:15;2.70;;;1.58;;
21903;SDS011;11116;51.554;7.812;2022-07-11T06:28:42;2.28;;;1.50;;
21903;SDS011;11116;51.554;7.812;2022-07-11T06:31:10;2.30;;;1.65;;
21903;SDS011;11116;51.554;7.812;2022-07-11T06:33:37;1.45;;;1.35;;
21903;SDS011;11116;51.554;7.812;2022-07-11T06:36:05;3.78;;;1.50;;
21903;SDS011;11116;51.554;7.812;2022-07-11T06:38:32;2.30;;;1.60;;
21903;SDS011;11116;51.554;7.812;2022-07-11T06:41:00;4.25;;;1.50;;
21903;SDS011;11116;51.554;7.812;2022-07-11T06:43:28;3.17;;;1.83;;
21903;SDS011;11116;51.554;7.812;2022-07-11T06:45:55;1.27;;;1.13;;
21903;SDS011;11116;51.554;7.812;2022-07-11T06:48:24;1.25;;;1.10;;
21903;SDS011;11116;51.554;7.812;2022-07-11T06:50:51;1.10;;;1.10;;
21903;SDS011;11116;51.554;7.812;2022-07-11T06:53:17;4.25;;;1.30;;
21903;SDS011;11116;51.554;7.812;2022-07-11T06:55:45;1.55;;;1.45;;
21903;SDS011;11116;51.554;7.812;2022-07-11T06:58:12;3.35;;;1.50;;
21903;SDS011;11116;51.554;7.812;2022-07-11T07:00:56;2.60;;;1.58;;
21903;SDS011;11116;51.554;7.812;2022-07-11T07:03:25;4.53;;;3.13;;
21903;SDS011;11116;51.554;7.812;2022-07-11T07:05:52;7.55;;;2.97;;
21903;SDS011;11116;51.554;7.812;2022-07-11T07:08:21;14.70;;;5.13;;
21903;SDS011;11116;51.554;7.812;2022-07-11T07:10:49;2.90;;;1.65;;
21903;SDS011;11116;51.554;7.812;2022-07-11T07:13:17;3.08;;;1.60;;
21903;SDS011;11116;51.554;7.812;2022-07-11T07:15:44;4.35;;;1.58;;
21903;SDS011;11116;51.554;7.812;2022-07-11T07:18:11;2.40;;;1.67;;
21903;SDS011;11116;51.554;7.812;2022-07-11T07:20:39;3.42;;;1.30;;
21903;SDS011;11116;51.554;7.812;2022-07-11T07:23:06;3.17;;;1.40;;
21903;SDS011;11116;51.554;7.812;2022-07-11T07:25:33;1.15;;;1.05;;
21903;SDS011;11116;51.554;7.812;2022-07-11T07:28:00;1.10;;;1.10;;
21903;SDS011;11116;51.554;7.812;2022-07-11T07:30:27;2.03;;;1.20;;
21903;SDS011;11116;51.554;7.812;2022-07-11T07:32:54;1.17;;;1.08;;
21903;SDS011;11116;51.554;7.812;2022-07-11T07:35:21;1.55;;;0.90;;
21903;SDS011;11116;51.554;7.812;2022-07-11T07:37:49;1.05;;;0.82;;
21903;SDS011;11116;51.554;7.812;2022-07-11T07:40:16;1.00;;;1.00;;
21903;SDS011;11116;51.554;7.812;2022-07-11T07:42:44;3.45;;;1.38;;
21903;SDS011;11116;51.554;7.812;2022-07-11T07:45:11;2.05;;;1.20;;
21903;SDS011;11116;51.554;7.812;2022-07-11T07:47:38;1.63;;;1.10;;
21903;SDS011;11116;51.554;7.812;2022-07-11T07:50:06;1.70;;;0.90;;
21903;SDS011;11116;51.554;7.812;2022-07-11T07:52:33;1.85;;;1.10;;
21903;SDS011;11116;51.554;7.812;2022-07-11T07:55:02;2.35;;;1.10;;
21903;SDS011;11116;51.554;7.812;2022-07-11T07:57:29;1.27;;;1.17;;
21903;SDS011;11116;51.554;7.812;2022-07-11T07:59:56;2.03;;;1.20;;
21903;SDS011;11116;51.554;7.812;2022-07-11T08:02:37;1.10;;;0.90;;
21903;SDS011;11116;51.554;7.812;2022-07-11T08:05:04;1.20;;;1.10;;
21903;SDS011;11116;51.554;7.812;2022-07-11T08:07:31;2.03;;;1.30;;
21903;SDS011;11116;51.554;7.812;2022-07-11T08:09:58;3.38;;;1.70;;
21903;SDS011;11116;51.554;7.812;2022-07-11T08:12:26;1.60;;;1.50;;
21903;SDS011;11116;51.554;7.812;2022-07-11T08:14:53;1.60;;;1.50;;
21903;SDS011;11116;51.554;7.812;2022-07-11T08:17:20;1.30;;;1.20;;
21903;SDS011;11116;51.554;7.812;2022-07-11T08:19:47;1.45;;;1.30;;
21903;SDS011;11116;51.554;7.812;2022-07-11T08:22:14;3.30;;;1.60;;
21903;SDS011;11116;51.554;7.812;2022-07-11T08:24:41;1.92;;;1.20;;
21903;SDS011;11116;51.554;7.812;2022-07-11T08:27:07;1.60;;;1.20;;
21903;SDS011;11116;51.554;7.812;2022-07-11T08:29:36;1.40;;;1.30;;
21903;SDS011;11116;51.554;7.812;2022-07-11T08:32:03;2.58;;;1.70;;
21903;SDS011;11116;51.554;7.812;2022-07-11T08:34:30;1.70;;;1.60;;
21903;SDS011;11116;51.554;7.812;2022-07-11T08:36:58;1.42;;;1.33;;
21903;SDS011;11116;51.554;7.812;2022-07-11T08:39:25;3.00;;;2.10;;
21903;SDS011;11116;51.554;7.812;2022-07-11T08:41:52;3.22;;;1.90;;
21903;SDS011;11116;51.554;7.812;2022-07-11T08:44:20;3.30;;;1.83;;
21903;SDS011;11116;51.554;7.812;2022-07-11T08:46:49;3.15;;;1.70;;
21903;SDS011;11116;51.554;7.812;2022-07-11T08:49:16;1.50;;;1.40;;
21903;SDS011;11116;51.554;7.812;2022-07-11T08:51:43;2.80;;;1.60;;
21903;SDS011;11116;51.554;7.812;2022-07-11T08:54:10;1.88;;;1.60;;
21903;SDS011;11116;51.554;7.812;2022-07-11T08:56:37;1.52;;;1.40;;
21903;SDS011;11116;51.554;7.812;2022-07-11T08:59:04;1.73;;;1.50;;
21903;SDS011;11116;51.554;7.812;2022-07-11T09:01:33;1.42;;;1.33;;
21903;SDS011;11116;51.554;7.812;2022-07-11T09:04:03;1.40;;;1.30;;
21903;SDS011;11116;51.554;7.812;2022-07-11T09:06:34;1.17;;;1.08;;
21903;SDS011;11116;51.554;7.812;2022-07-11T09:09:01;3.08;;;0.90;;
21903;SDS011;11116;51.554;7.812;2022-07-11T09:11:28;1.38;;;1.20;;
21903;SDS011;11116;51.554;7.812;2022-07-11T09:14:20;1.85;;;1.10;;
21903;SDS011;11116;51.554;7.812;2022-07-11T09:16:52;2.60;;;1.02;;
21903;SDS011;11116;51.554;7.812;2022-07-11T09:19:22;1.27;;;1.10;;
21903;SDS011;11116;51.554;7.812;2022-07-11T09:22:02;1.42;;;1.20;;
21903;SDS011;11116;51.554;7.812;2022-07-11T09:24:54;4.97;;;1.30;;
21903;SDS011;11116;51.554;7.812;2022-07-11T09:27:40;1.25;;;1.15;;
21903;SDS011;11116;51.554;7.812;2022-07-11T09:30:16;1.50;;;1.25;;
21903;SDS011;11116;51.554;7.812;2022-07-11T09:35:38;4.20;;;1.15;;
21903;SDS011;11116;51.554;7.812;2022-07-11T09:38:06;1.10;;;1.00;;
21903;SDS011;11116;51.554;7.812;2022-07-11T09:40:34;1.40;;;1.13;;
21903;SDS011;11116;51.554;7.812;2022-07-11T09:43:03;2.10;;;0.98;;
21903;SDS011;11116;51.554;7.812;2022-07-11T09:45:31;1.75;;;0.70;;
21903;SDS011;11116;51.554;7.812;2022-07-11T09:47:59;0.77;;;0.73;;
21903;SDS011;11116;51.554;7.812;2022-07-11T09:50:27;0.65;;;0.65;;
21903;SDS011;11116;51.554;7.812;2022-07-11T09:53:04;1.67;;;1.00;;
21903;SDS011;11116;51.554;7.812;2022-07-11T09:55:32;1.60;;;1.50;;
21903;SDS011;11116;51.554;7.812;2022-07-11T09:58:03;1.85;;;1.75;;
21903;SDS011;11116;51.554;7.812;2022-07-11T10:00:30;2.03;;;1.77;;
21903;SDS011;11116;51.554;7.812;2022-07-11T10:02:58;2.10;;;1.65;;
21903;SDS011;11116;51.554;7.812;2022-07-11T10:05:25;1.90;;;1.80;;
21903;SDS011;11116;51.554;7.812;2022-07-11T10:07:52;6.15;;;1.83;;
21903;SDS011;11116;51.554;7.812;2022-07-11T10:10:22;1.70;;;1.60;;
21903;SDS011;11116;51.554;7.812;2022-07-11T10:12:50;5.80;;;2.55;;
21903;SDS011;11116;51.554;7.812;2022-07-11T10:15:19;1.58;;;1.42;;
21903;SDS011;11116;51.554;7.812;2022-07-11T10:17:51;1.95;;;1.00;;
21903;SDS011;11116;51.554;7.812;2022-07-11T10:20:26;3.90;;;0.90;;
21903;SDS011;11116;51.554;7.812;2022-07-11T10:23:03;1.02;;;0.90;;
21903;SDS011;11116;51.554;7.812;2022-07-11T10:25:42;1.52;;;1.00;;
21903;SDS011;11116;51.554;7.812;2022-07-11T10:28:18;1.40;;;1.30;;
21903;SDS011;11116;51.554;7.812;2022-07-11T10:30:53;1.58;;;1.48;;
21903;SDS011;11116;51.554;7.812;2022-07-11T10:33:21;1.67;;;1.35;;
21903;SDS011;11116;51.554;7.812;2022-07-11T10:35:49;2.78;;;1.67;;
21903;SDS011;11116;51.554;7.812;2022-07-11T10:38:17;3.47;;;1.50;;
21903;SDS011;11116;51.554;7.812;2022-07-11T10:40:47;1.80;;;1.70;;
21903;SDS011;11116;51.554;7.812;2022-07-11T10:43:16;1.20;;;1.20;;
21903;SDS011;11116;51.554;7.812;2022-07-11T10:46:01;2.13;;;1.27;;
21903;SDS011;11116;51.554;7.812;2022-07-11T10:48:30;2.40;;;1.30;;
21903;SDS011;11116;51.554;7.812;2022-07-11T10:51:05;1.95;;;1.23;;
21903;SDS011;11116;51.554;7.812;2022-07-11T10:53:45;1.27;;;1.13;;
21903;SDS011;11116;51.554;7.812;2022-07-11T10:56:23;2.75;;;0.80;;
21903;SDS011;11116;51.554;7.812;2022-07-11T10:58:58;0.95;;;0.85;;
21903;SDS011;11116;51.554;7.812;2022-07-11T11:01:34;1.83;;;1.27;;
21903;SDS011;11116;51.554;7.812;2022-07-11T11:09:56;0.82;;;0.82;;
21903;SDS011;11116;51.554;7.812;2022-07-11T11:15:34;3.75;;;0.90;;
21903;SDS011;11116;51.554;7.812;2022-07-11T11:21:12;0.70;;;0.70;;
21903;SDS011;11116;51.554;7.812;2022-07-11T11:24:01;1.55;;;0.85;;
21903;SDS011;11116;51.554;7.812;2022-07-11T11:26:44;0.60;;;0.60;;
21903;SDS011;11116;51.554;7.812;2022-07-11T11:29:19;1.17;;;1.00;;
21903;SDS011;11116;51.554;7.812;2022-07-11T11:31:49;1.15;;;0.63;;
21903;SDS011;11116;51.554;7.812;2022-07-11T11:34:19;0.82;;;0.73;;
21903;SDS011;11116;51.554;7.812;2022-07-11T11:36:51;0.80;;;0.70;;
21903;SDS011;11116;51.554;7.812;2022-07-11T11:39:26;1.67;;;1.27;;
21903;SDS011;11116;51.554;7.812;2022-07-11T11:42:00;0.60;;;0.60;;
21903;SDS011;11116;51.554;7.812;2022-07-11T11:44:29;1.13;;;0.77;;
21903;SDS011;11116;51.554;7.812;2022-07-11T11:46:58;1.17;;;0.73;;
21903;SDS011;11116;51.554;7.812;2022-07-11T11:49:25;1.08;;;0.98;;
21903;SDS011;11116;51.554;7.812;2022-07-11T11:51:53;1.85;;;1.00;;
21903;SDS011;11116;51.554;7.812;2022-07-11T11:54:22;1.80;;;0.93;;
21903;SDS011;11116;51.554;7.812;2022-07-11T11:56:50;3.05;;;1.00;;
21903;SDS011;11116;51.554;7.812;2022-07-11T11:59:17;1.42;;;0.63;;
21903;SDS011;11116;51.554;7.812;2022-07-11T12:01:45;1.77;;;0.80;;
21903;SDS011;11116;51.554;7.812;2022-07-11T12:04:15;1.67;;;1.00;;
21903;SDS011;11116;51.554;7.812;2022-07-11T12:06:43;0.77;;;0.77;;
21903;SDS011;11116;51.554;7.812;2022-07-11T12:09:11;0.77;;;0.77;;
21903;SDS011;11116;51.554;7.812;2022-07-11T12:11:41;2.03;;;1.33;;
21903;SDS011;11116;51.554;7.812;2022-07-11T12:14:09;1.55;;;1.10;;
21903;SDS011;11116;51.554;7.812;2022-07-11T12:16:39;0.88;;;0.80;;
21903;SDS011;11116;51.554;7.812;2022-07-11T12:19:12;3.65;;;0.90;;
21903;SDS011;11116;51.554;7.812;2022-07-11T12:21:41;0.90;;;0.90;;
21903;SDS011;11116;51.554;7.812;2022-07-11T12:24:10;1.08;;;0.82;;
21903;SDS011;11116;51.554;7.812;2022-07-11T12:26:39;0.70;;;0.70;;
21903;SDS011;11116;51.554;7.812;2022-07-11T12:29:10;1.35;;;0.77;;
21903;SDS011;11116;51.554;7.812;2022-07-11T12:31:41;0.60;;;0.60;;
21903;SDS011;11116;51.554;7.812;2022-07-11T12:34:12;2.28;;;0.43;;
21903;SDS011;11116;51.554;7.812;2022-07-11T12:36:41;2.30;;;0.63;;
21903;SDS011;11116;51.554;7.812;2022-07-11T12:39:08;1.80;;;0.90;;
21903;SDS011;11116;51.554;7.812;2022-07-11T12:41:35;1.13;;;0.70;;
21903;SDS011;11116;51.554;7.812;2022-07-11T12:44:03;0.55;;;0.50;;
21903;SDS011;11116;51.554;7.812;2022-07-11T12:46:47;0.70;;;0.32;;
21903;SDS011;11116;51.554;7.812;2022-07-11T12:49:14;0.40;;;0.40;;
21903;SDS011;11116;51.554;7.812;2022-07-11T12:51:44;0.60;;;0.60;;
21903;SDS011;11116;51.554;7.812;2022-07-11T12:54:12;2.10;;;0.50;;
21903;SDS011;11116;51.554;7.812;2022-07-11T12:56:41;1.45;;;0.60;;
21903;SDS011;11116;51.554;7.812;2022-07-11T12:59:19;1.05;;;0.40;;
21903;SDS011;11116;51.554;7.812;2022-07-11T13:01:53;1.20;;;0.43;;
21903;SDS011;11116;51.554;7.812;2022-07-11T13:04:31;0.80;;;0.50;;
21903;SDS011;11116;51.554;7.812;2022-07-11T13:10:03;0.40;;;0.40;;
21903;SDS011;11116;51.554;7.812;2022-07-11T13:12:32;0.50;;;0.50;;
21903;SDS011;11116;51.554;7.812;2022-07-11T13:14:59;4.03;;;0.57;;
21903;SDS011;11116;51.554;7.812;2022-07-11T13:17:36;0.40;;;0.40;;
21903;SDS011;11116;51.554;7.812;2022-07-11T13:20:04;0.32;;;0.32;;
21903;SDS011;11116;51.554;7.812;2022-07-11T13:22:34;0.45;;;0.40;;
21903;SDS011;11116;51.554;7.812;2022-07-11T13:25:01;0.40;;;0.40;;
21903;SDS011;11116;51.554;7.812;2022-07-11T13:27:28;2.00;;;0.70;;
21903;SDS011;11116;51.554;7.812;2022-07-11T13:29:56;0.70;;;0.50;;
21903;SDS011;11116;51.554;7.812;2022-07-11T13:32:23;0.98;;;0.50;;
21903;SDS011;11116;51.554;7.812;2022-07-11T13:34:50;0.93;;;0.50;;
21903;SDS011;11116;51.554;7.812;2022-07-11T13:37:17;1.08;;;0.50;;
21903;SDS011;11116;51.554;7.812;2022-07-11T13:39:46;0.43;;;0.43;;
21903;SDS011;11116;51.554;7.812;2022-07-11T13:42:13;0.80;;;0.47;;
21903;SDS011;11116;51.554;7.812;2022-07-11T13:44:40;0.60;;;0.60;;
21903;SDS011;11116;51.554;7.812;2022-07-11T13:47:06;0.50;;;0.50;;
21903;SDS011;11116;51.554;7.812;2022-07-11T13:49:33;0.82;;;0.73;;
21903;SDS011;11116;51.554;7.812;2022-07-11T13:52:00;0.85;;;0.60;;
21903;SDS011;11116;51.554;7.812;2022-07-11T13:54:27;0.50;;;0.50;;
21903;SDS011;11116;51.554;7.812;2022-07-11T13:56:55;1.02;;;0.40;;
21903;SDS011;11116;51.554;7.812;2022-07-11T13:59:22;0.43;;;0.43;;
21903;SDS011;11116;51.554;7.812;2022-07-11T14:01:49;2.28;;;0.50;;
21903;SDS011;11116;51.554;7.812;2022-07-11T14:04:16;1.23;;;0.50;;
21903;SDS011;11116;51.554;7.812;2022-07-11T14:06:43;0.50;;;0.50;;
21903;SDS011;11116;51.554;7.812;2022-07-11T14:09:10;0.68;;;0.68;;
21903;SDS011;11116;51.554;7.812;2022-07-11T14:11:37;1.38;;;0.70;;
21903;SDS011;11116;51.554;7.812;2022-07-11T14:14:05;0.60;;;0.60;;
21903;SDS011;11116;51.554;7.812;2022-07-11T14:16:32;0.50;;;0.50;;
21903;SDS011;11116;51.554;7.812;2022-07-11T14:18:59;0.60;;;0.60;;
21903;SDS011;11116;51.554;7.812;2022-07-11T14:21:29;0.65;;;0.50;;
21903;SDS011;11116;51.554;7.812;2022-07-11T14:23:56;2.17;;;0.50;;
21903;SDS011;11116;51.554;7.812;2022-07-11T14:26:23;0.77;;;0.60;;
21903;SDS011;11116;51.554;7.812;2022-07-11T14:28:50;0.50;;;0.50;;
21903;SDS011;11116;51.554;7.812;2022-07-11T14:31:19;0.55;;;0.50;;
21903;SDS011;11116;51.554;7.812;2022-07-11T14:33:47;0.40;;;0.40;;
21903;SDS011;11116;51.554;7.812;2022-07-11T14:36:15;1.13;;;0.30;;
21903;SDS011;11116;51.554;7.812;2022-07-11T14:38:42;1.27;;;0.63;;
21903;SDS011;11116;51.554;7.812;2022-07-11T14:41:09;0.32;;;0.32;;
21903;SDS011;11116;51.554;7.812;2022-07-11T14:43:36;0.50;;;0.50;;
21903;SDS011;11116;51.554;7.812;2022-07-11T14:46:03;0.75;;;0.50;;
21903;SDS011;11116;51.554;7.812;2022-07-11T14:48:33;0.90;;;0.50;;
21903;SDS011;11116;51.554;7.812;2022-07-11T14:51:00;0.50;;;0.50;;
21903;SDS011;11116;51.554;7.812;2022-07-11T14:53:27;0.20;;;0.20;;
21903;SDS011;11116;51.554;7.812;2022-07-11T14:55:54;0.82;;;0.60;;
21903;SDS011;11116;51.554;7.812;2022-07-11T14:58:24;0.77;;;0.30;;
21903;SDS011;11116;51.554;7.812;2022-07-11T15:00:51;1.08;;;0.40;;
21903;SDS011;11116;51.554;7.812;2022-07-11T15:03:18;0.93;;;0.57;;
21903;SDS011;11116;51.554;7.812;2022-07-11T15:06:06;0.50;;;0.50;;
21903;SDS011;11116;51.554;7.812;2022-07-11T15:08:33;0.77;;;0.60;;
21903;SDS011;11116;51.554;7.812;2022-07-11T15:11:18;1.80;;;0.60;;
21903;SDS011;11116;51.554;7.812;2022-07-11T15:14:02;3.35;;;0.50;;